Terminal Aerodrome Forecast
Issued by NWS Nashville, TN

Home | Current Version | Previous Version | Text Only | Print | Product List | Glossary On
Versions: 1 2 3 4 5 6 7 8 9 10 11 12 13 14 15 16 17 18 19 20 21
000
FTUS44 KOHX 011127
TAFBNA
TAF
KBNA 011127Z 0112/0212 19003KT P6SM SCT070 SCT250
     FM011700 21007KT P6SM SCT035 BKN250
      TEMPO 0121/0201 5SM -TSRA OVC035CB
     FM020800 22004KT 5SM BR OVC020=

USA.gov is the U.S. government's official web portal to all federal, state and local government web resources and services.